Geldermalsen, Netherlands
Current Conditions -  °F | °C
As of 7:55 PM on Tuesday 27 Jan 2015 (Local Time) from EHVK Reporting Station
Overcast Overcast  
Wind Chill: 36°   Ceiling: 2200
Heat Index: 41°   Visibility: 6mi
Dew Point: 37°   Wind: 7mph
Humidity: 87%   Direction: 260°W
Pressure: 30.18"   Gusts: NA
Location:  51.88°N, 5.29°E
Report Text: EHVK 271855Z AUTO 26006KT 9999 FEW014 OVC022 05/03 Q1022 WHT 28006KT 9999 FEW020 BKN090 TEMPO SCT015 BKN090
Loading
Personal Weather Stations






























Interactive Weather Map New forecast layout! Learn more

10-Day Weather Forecast

Advertisements
Track Severe Weather on mobile